createdAt,value
2019-03-27T07:02:47.616Z,5.47
2019-03-27T07:05:35.066Z,5.17
2019-03-27T07:08:22.418Z,5.12
2019-03-27T07:11:10.286Z,4.75
2019-03-27T07:13:57.970Z,5.12
2019-03-27T07:16:45.953Z,4.58
2019-03-27T07:19:33.926Z,4.65
2019-03-27T07:22:21.459Z,4.60
2019-03-27T07:25:08.821Z,4.40
2019-03-27T07:27:56.799Z,4.10
2019-03-27T07:30:44.438Z,4.10
2019-03-27T07:33:31.841Z,3.65
2019-03-27T07:36:19.672Z,3.85
2019-03-27T07:39:11.348Z,4.50
2019-03-27T07:41:57.046Z,3.67
2019-03-27T07:44:44.930Z,4.25
2019-03-27T07:47:32.496Z,3.67
2019-03-27T07:50:20.258Z,3.70
2019-03-27T07:53:07.981Z,3.35
2019-03-27T07:55:55.448Z,3.20
2019-03-27T07:58:43.158Z,3.52
2019-03-27T08:01:31.088Z,3.22
2019-03-27T08:04:18.787Z,3.42
2019-03-27T08:07:06.137Z,3.08
2019-03-27T08:09:54.144Z,3.35
2019-03-27T08:12:41.758Z,3.47
2019-03-27T08:15:29.352Z,3.20
2019-03-27T08:18:16.904Z,3.27
2019-03-27T08:21:04.675Z,3.00
2019-03-27T08:23:52.182Z,3.35
2019-03-27T08:26:39.937Z,2.80
2019-03-27T08:29:27.606Z,3.30
2019-03-27T08:32:15.642Z,2.93
2019-03-27T08:35:03.348Z,3.25
2019-03-27T08:37:51.174Z,3.30
2019-03-27T08:40:38.879Z,3.22
2019-03-27T08:43:26.335Z,3.50
2019-03-27T08:46:14.115Z,3.05
2019-03-27T08:49:02.780Z,3.20
2019-03-27T08:51:50.081Z,3.05
2019-03-27T08:54:38.353Z,3.05
2019-03-27T08:57:26.162Z,3.30
2019-03-27T09:00:13.853Z,3.17
2019-03-27T09:03:01.515Z,3.45
2019-03-27T09:05:49.296Z,2.92
2019-03-27T09:08:37.032Z,3.35
2019-03-27T09:11:24.830Z,3.90
2019-03-27T09:14:12.891Z,3.00
2019-03-27T09:17:00.562Z,4.17
2019-03-27T09:19:48.414Z,3.77
2019-03-27T09:22:36.153Z,4.50
2019-03-27T09:25:24.403Z,4.53
2019-03-27T09:28:13.310Z,4.00
2019-03-27T09:31:00.677Z,4.05
2019-03-27T09:33:48.154Z,3.77
2019-03-27T09:36:35.595Z,4.53
2019-03-27T09:39:23.195Z,3.80
2019-03-27T09:42:10.880Z,3.95
2019-03-27T09:44:58.440Z,3.80
2019-03-27T09:47:46.125Z,3.70
2019-03-27T09:50:33.732Z,3.35
2019-03-27T09:53:21.306Z,3.83
2019-03-27T09:56:19.098Z,3.47
2019-03-27T09:58:58.124Z,3.58
2019-03-27T10:01:46.157Z,3.72
2019-03-27T10:04:33.997Z,3.95
2019-03-27T10:27:05.903Z,3.50
2019-03-27T10:29:53.306Z,3.50
2019-03-27T10:32:40.930Z,3.42
2019-03-27T10:35:28.843Z,3.25
2019-03-27T10:38:16.722Z,3.17
2019-03-27T10:41:05.167Z,3.50
2019-03-27T10:43:52.840Z,3.37
2019-03-27T10:46:40.533Z,3.02
2019-03-27T10:49:27.858Z,3.40
2019-03-27T10:52:15.217Z,3.10
2019-03-27T10:55:02.660Z,3.45
2019-03-27T10:57:50.405Z,3.83
2019-03-27T11:00:38.087Z,6.85
2019-03-27T11:03:25.723Z,34.58
2019-03-27T11:06:14.712Z,41.85
2019-03-27T11:09:05.116Z,35.20
2019-03-27T11:11:53.270Z,28.57
2019-03-27T11:14:40.680Z,28.05
2019-03-27T11:17:28.642Z,29.63
2019-03-27T11:20:29.930Z,25.67
2019-03-27T11:23:06.284Z,25.60
2019-03-27T11:25:54.176Z,18.35
2019-03-27T11:28:41.751Z,19.35
2019-03-27T11:31:57.916Z,22.93
2019-03-27T11:34:45.608Z,19.37
2019-03-27T11:37:33.313Z,18.32
2019-03-27T11:40:21.170Z,16.93
2019-03-27T11:43:09.044Z,17.20
2019-03-27T11:45:56.636Z,18.77
2019-03-27T11:48:44.611Z,16.37
2019-03-27T11:51:32.205Z,16.95
2019-03-27T11:54:20.013Z,16.55
2019-03-27T11:57:07.711Z,16.32
2019-03-27T11:59:55.773Z,16.10
2019-03-27T12:02:43.649Z,15.95
2019-03-27T12:05:31.527Z,15.03
2019-03-27T12:08:19.428Z,14.90
2019-03-27T12:11:07.437Z,14.90
2019-03-27T12:13:55.083Z,14.47
2019-03-27T12:16:42.791Z,14.38
2019-03-27T12:19:30.207Z,14.47
2019-03-27T12:22:17.738Z,13.20
2019-03-27T12:25:05.358Z,13.53
2019-03-27T12:27:52.740Z,12.75
2019-03-27T12:30:40.335Z,12.82
2019-03-27T12:33:27.882Z,12.20
2019-03-27T12:36:15.568Z,11.95
2019-03-27T12:39:05.246Z,11.50
2019-03-27T12:41:52.721Z,12.80
2019-03-27T12:44:40.107Z,11.63
2019-03-27T12:47:27.762Z,11.20
2019-03-27T12:50:15.630Z,11.08
2019-03-27T12:53:03.430Z,10.80
2019-03-27T12:55:50.846Z,10.70
2019-03-27T12:58:46.370Z,10.48
2019-03-27T16:02:42.321Z,5.75
2019-03-27T16:05:29.953Z,5.47
2019-03-27T16:08:17.817Z,4.72
2019-03-27T16:11:05.673Z,5.55
2019-03-27T16:13:53.231Z,5.00
2019-03-27T16:16:51.673Z,6.28
2019-03-27T16:19:31.852Z,4.90
2019-03-27T16:22:19.725Z,4.70
2019-03-27T16:25:08.647Z,5.22
2019-03-27T16:27:56.246Z,5.95
2019-03-27T16:30:44.294Z,5.58
2019-03-27T16:33:31.794Z,5.65
2019-03-27T16:36:19.323Z,6.75
2019-03-27T16:39:07.025Z,6.78
2019-03-27T16:41:54.371Z,6.37
2019-03-27T16:44:41.955Z,7.15
2019-03-27T16:47:29.313Z,6.85
2019-03-27T16:50:17.386Z,6.15
2019-03-27T16:55:32.993Z,6.35
2019-03-27T16:58:02.888Z,5.90
2019-03-27T17:01:53.645Z,6.25
2019-03-27T17:04:24.551Z,5.72
2019-03-27T17:06:55.455Z,6.17
2019-03-27T17:09:26.543Z,6.28
2019-03-27T17:11:57.424Z,5.20
2019-03-27T17:14:28.316Z,5.90
2019-03-27T17:16:59.270Z,5.85
2019-03-27T17:19:30.182Z,5.70
2019-03-27T17:22:01.065Z,5.87
2019-03-27T17:24:31.959Z,5.62
2019-03-27T17:27:02.847Z,5.60
2019-03-27T17:29:33.807Z,5.80
2019-03-27T17:32:04.696Z,5.03
2019-03-27T17:34:35.595Z,5.33
2019-03-27T17:37:06.487Z,5.12
2019-03-27T17:39:37.365Z,5.33
2019-03-27T17:42:08.268Z,5.00
2019-03-27T17:44:39.164Z,4.92
2019-03-27T17:47:10.074Z,5.42
2019-03-27T17:49:40.959Z,5.08
2019-03-27T17:52:12.066Z,5.30
2019-03-27T17:54:43.005Z,4.85
2019-03-27T17:57:13.902Z,4.60
2019-03-27T17:59:45.878Z,5.05
2019-03-27T18:02:16.810Z,4.70
2019-03-27T18:04:48.656Z,4.70
2019-03-27T18:07:19.541Z,5.20
2019-03-27T18:09:50.532Z,5.33
2019-03-27T18:12:21.423Z,4.65
2019-03-27T18:14:52.330Z,3.77
2019-03-27T18:17:23.304Z,4.60
2019-03-27T18:19:54.195Z,4.83
2019-03-27T18:22:25.148Z,4.47
2019-03-27T18:24:56.039Z,3.98
2019-03-27T18:27:27.045Z,4.35
2019-03-27T18:29:57.934Z,4.30
2019-03-27T18:32:28.839Z,4.75
2019-03-27T18:34:59.722Z,5.00
2019-03-27T18:39:52.883Z,4.83
2019-03-27T18:42:22.794Z,4.37
2019-03-27T18:44:52.675Z,4.47
2019-03-27T18:47:47.129Z,4.55
2019-03-27T18:52:27.435Z,4.78
2019-03-27T18:54:57.304Z,7.55
2019-03-27T18:57:27.243Z,8.53
2019-03-27T18:59:57.189Z,14.68
2019-03-27T19:02:27.158Z,17.05
2019-03-27T19:04:57.123Z,17.12
2019-03-27T19:07:27.040Z,18.00
2019-03-27T19:09:56.978Z,18.82
2019-03-27T19:12:27.293Z,17.57
2019-03-27T19:14:57.300Z,16.82
2019-03-27T19:17:27.198Z,16.27
2019-03-27T19:19:57.092Z,16.73
2019-03-27T19:22:27.019Z,15.70
2019-03-27T19:24:57.000Z,13.62
2019-03-27T19:27:26.904Z,14.40
2019-03-27T19:29:56.828Z,15.65
2019-03-27T19:32:26.808Z,14.13
2019-03-27T19:35:25.672Z,14.18
2019-03-27T19:47:52.004Z,14.47
2019-03-27T19:51:49.700Z,12.13
2019-03-27T19:54:26.604Z,11.57
2019-03-27T19:56:45.276Z,11.38
2019-03-27T19:59:12.013Z,11.10
2019-03-27T20:01:38.755Z,11.65
2019-03-27T20:04:05.683Z,10.85
2019-03-27T20:06:32.406Z,11.12
2019-03-27T20:08:59.170Z,11.20
2019-03-27T20:11:26.006Z,10.90
2019-03-27T20:13:52.822Z,11.05
2019-03-27T20:16:19.707Z,10.50
2019-03-27T20:18:46.421Z,11.05
2019-03-27T20:21:13.176Z,11.12
2019-03-27T20:23:39.994Z,11.33
2019-03-27T20:26:06.728Z,10.40
2019-03-27T20:28:33.558Z,9.98
2019-03-27T20:31:00.298Z,10.18
2019-03-27T20:33:27.224Z,9.25
2019-03-27T20:35:54.026Z,9.58
2019-03-27T20:38:21.864Z,10.78
2019-03-27T20:40:48.601Z,9.90
2019-03-27T20:43:16.926Z,10.45
2019-03-27T20:45:44.091Z,9.70
2019-03-27T20:50:31.964Z,9.55
2019-03-27T20:52:58.942Z,9.50
2019-03-27T20:55:30.691Z,9.60
2019-03-27T20:57:54.249Z,8.50
2019-03-27T21:00:20.951Z,8.75
2019-03-27T21:02:47.692Z,8.70
2019-03-27T21:05:14.417Z,8.55
2019-03-27T21:07:41.167Z,8.38
2019-03-27T21:10:07.772Z,8.48
2019-03-27T21:12:34.504Z,8.00
2019-03-27T21:15:01.106Z,8.70
2019-03-27T21:17:27.853Z,8.88
2019-03-27T21:19:54.449Z,8.25
2019-03-27T21:22:21.114Z,7.90
2019-03-27T21:24:47.702Z,8.38
2019-03-27T21:27:16.774Z,8.48
2019-03-27T21:29:42.842Z,8.15
2019-03-27T21:32:09.464Z,7.87
2019-03-27T21:34:36.079Z,7.70
2019-03-27T21:37:02.692Z,8.65
2019-03-27T21:39:29.472Z,8.15
2019-03-27T21:41:56.161Z,7.45
2019-03-27T21:44:22.804Z,7.72
2019-03-27T21:46:49.486Z,8.55
2019-03-27T21:49:16.133Z,7.33
2019-03-27T21:51:42.878Z,8.20
2019-03-27T21:54:09.500Z,7.58
2019-03-27T21:56:37.269Z,7.22
2019-03-27T21:59:04.070Z,7.67
2019-03-27T22:01:30.671Z,7.35
2019-03-27T22:03:58.065Z,7.85
2019-03-27T22:06:27.050Z,7.35
2019-03-27T22:08:55.555Z,7.00
2019-03-27T22:11:23.029Z,7.90
2019-03-27T22:13:51.266Z,7.60
2019-03-27T22:16:20.506Z,7.00
2019-03-27T22:18:48.111Z,7.92
2019-03-27T22:21:14.742Z,6.97
2019-03-27T22:23:41.444Z,7.12
2019-03-27T22:26:08.094Z,7.10
2019-03-27T22:28:34.712Z,7.37
2019-03-27T22:31:01.332Z,6.33
2019-03-27T22:33:27.924Z,6.72
2019-03-27T22:35:54.600Z,7.80
2019-03-27T22:38:21.224Z,7.12
2019-03-27T22:40:47.831Z,6.80
2019-03-27T22:43:15.560Z,6.80
2019-03-27T22:45:42.226Z,7.08
2019-03-27T22:48:08.881Z,6.67
2019-03-27T22:50:35.494Z,7.15
2019-03-27T22:53:02.146Z,6.55
2019-03-27T22:55:28.738Z,6.42
2019-03-27T22:57:55.355Z,6.65
2019-03-27T23:00:23.858Z,6.30
2019-03-27T23:02:52.374Z,6.33
2019-03-27T23:05:19.005Z,6.80
2019-03-27T23:07:45.759Z,6.42
2019-03-27T23:10:12.370Z,6.00
2019-03-27T23:12:38.986Z,6.30
2019-03-27T23:15:08.650Z,6.28
2019-03-27T23:17:35.379Z,6.10
2019-03-27T23:20:02.995Z,5.72
2019-03-27T23:22:29.618Z,6.35
2019-03-27T23:24:56.244Z,6.05
2019-03-27T23:27:22.998Z,6.20
2019-03-27T23:29:49.739Z,6.17
2019-03-27T23:32:16.355Z,6.20
2019-03-27T23:34:42.984Z,6.25
2019-03-27T23:37:09.593Z,5.62
2019-03-27T23:39:36.206Z,5.85
2019-03-27T23:42:02.810Z,5.67
2019-03-27T23:44:30.616Z,6.03
2019-03-27T23:46:57.464Z,5.65
2019-03-27T23:49:24.216Z,5.92
2019-03-27T23:51:50.931Z,5.80
2019-03-27T23:54:17.540Z,6.20
2019-03-27T23:56:44.145Z,6.10
2019-03-27T23:59:10.770Z,6.10
